Etusivu
METAR-TAF:

METAR-TAF

Lentoasemat :

Stokmarknesin lentoasema

Stokmarknes, Norja

Leveyspiiri: 68-35N, Pituuspiiri: 015-01E, korkeus merenpinnasta: 0 m

Tämänhetkinen sää

Tämä raportti tehtiin 40 minuuttia sitten, kello 16.50 UTC
Tuuli 21 kn etelästä/lounaasta
Lämpötila 9°C
Kosteus 81%
Ilmanpaine 1010 hPa
Näkyvyys 10 km tai enemmän
Muutamia pilviä 1300 ft:n korkeudessa
Hajanaisia pilviä 1700 ft:n korkeudessa
Hajonneita pilviä 2500 ft:n korkeudessa
heikkoa sadetta

METAR: ENSK 201650Z 20021KT 9999 -RA FEW013 SCT017 BKN025 09/06 Q1010

Aika: 19:30 (17:30 UTC)


TAF: puuttuu

Säähavainnot ja -ennusteet yli 4000 lentoasemalta (METAR- ja TAF-raportit).

Käytössä olevat sääasemat on merkitty karttaan keltaisilla ja punaisilla pisteillä.

Aseta hiiri pisteen päälle nähdäksesi sääaseman nimen.

Klikkaa sitten nähdäksesi säähavainnot ja -ennusteet.

Kartan vaihtaminen: klikkaa mustalla rastilla varustettuja vihreitä pisteitä, niin voit zoomata sisään; viivalla varustettua vihreää pistettä, niin voit zoomata ulos tai vihreitä nuolia, niin pääset viereisille kartoille.


METAR-TAF: